createdAt,value
2019-03-13T00:00:44.946Z,68.41
2019-03-13T00:03:16.795Z,68.41
2019-03-13T00:05:46.490Z,69.46
2019-03-13T00:08:16.222Z,69.08
2019-03-13T00:10:45.974Z,69.22
2019-03-13T00:13:18.150Z,70.16
2019-03-13T00:15:49.710Z,70.16
2019-03-13T00:18:19.052Z,70.17
2019-03-13T00:20:51.975Z,69.87
2019-03-13T00:23:27.167Z,69.87
2019-03-13T00:25:56.786Z,68.98
2019-03-13T00:28:26.325Z,69.73
2019-03-13T00:30:55.968Z,70.05
2019-03-13T00:33:26.977Z,70.22
2019-03-13T00:35:57.999Z,70.22
2019-03-13T00:38:27.569Z,70.03
2019-03-13T00:40:57.217Z,69.51
2019-03-13T00:43:26.922Z,70.14
2019-03-13T00:45:56.586Z,69.75
2019-03-13T00:48:26.159Z,69.75
2019-03-13T00:50:55.782Z,70.10
2019-03-13T00:53:31.581Z,69.59
2019-03-13T00:56:03.152Z,69.59
2019-03-13T00:58:32.806Z,68.69
2019-03-13T01:01:20.077Z,68.99
2019-03-13T01:04:08.815Z,68.74
2019-03-13T01:06:46.987Z,68.74
2019-03-13T01:09:16.634Z,69.56
2019-03-13T01:11:47.595Z,69.04
2019-03-13T01:14:18.221Z,69.04
2019-03-13T01:16:48.117Z,69.43
2019-03-13T01:19:21.280Z,69.72
2019-03-13T01:21:50.862Z,70.18
2019-03-13T01:24:20.509Z,69.84
2019-03-13T01:26:52.024Z,69.84
2019-03-13T01:29:22.580Z,70.15
2019-03-13T01:32:09.798Z,70.84
2019-03-13T01:34:57.121Z,70.45
2019-03-13T01:37:26.909Z,70.31
2019-03-13T01:39:58.698Z,70.53
2019-03-13T01:42:28.327Z,70.73
2019-03-13T01:44:58.027Z,70.68
2019-03-13T01:47:31.048Z,70.98
2019-03-13T01:50:00.778Z,71.16
2019-03-13T01:52:32.336Z,71.16
2019-03-13T01:55:02.142Z,71.19
2019-03-13T01:57:31.649Z,70.15
2019-03-13T02:00:01.274Z,70.00
2019-03-13T02:02:32.617Z,70.00
2019-03-13T02:05:02.365Z,70.21
2019-03-13T02:07:32.077Z,70.72
2019-03-13T02:10:05.540Z,70.81
2019-03-13T02:12:38.570Z,70.56
2019-03-13T02:15:09.074Z,69.44
2019-03-13T02:17:38.672Z,69.44
2019-03-13T02:20:09.157Z,69.66
2019-03-13T02:22:38.848Z,70.16
2019-03-13T02:25:09.782Z,71.22
2019-03-13T02:27:41.302Z,71.25
2019-03-13T02:30:12.438Z,71.25
2019-03-13T02:32:42.112Z,70.75
2019-03-13T02:35:11.819Z,70.87
2019-03-13T02:37:41.496Z,70.94
2019-03-13T02:40:11.692Z,71.09
2019-03-13T02:42:41.580Z,70.92
2019-03-13T02:45:11.766Z,70.94
2019-03-13T02:47:41.478Z,70.94
2019-03-13T02:50:14.764Z,71.15
2019-03-13T02:52:44.492Z,71.47
2019-03-13T02:55:14.069Z,70.61
2019-03-13T02:57:43.673Z,70.44
2019-03-13T03:00:17.499Z,70.48
2019-03-13T03:02:51.686Z,70.73
2019-03-13T03:05:21.337Z,70.73
2019-03-13T03:07:52.123Z,70.38
2019-03-13T03:10:22.769Z,70.38
2019-03-13T03:12:54.656Z,70.77
2019-03-13T03:15:25.570Z,70.82
2019-03-13T03:17:56.360Z,70.97
2019-03-13T03:20:25.990Z,70.23
2019-03-13T03:22:55.735Z,70.64
2019-03-13T03:25:27.572Z,70.36
2019-03-13T03:27:57.204Z,70.47
2019-03-13T03:30:27.396Z,70.36
2019-03-13T03:32:59.772Z,69.27
2019-03-13T03:35:29.523Z,69.18
2019-03-13T03:37:59.110Z,68.95
2019-03-13T03:40:31.822Z,69.09
2019-03-13T03:43:03.105Z,69.25
2019-03-13T03:45:36.302Z,69.20
2019-03-13T03:48:07.369Z,69.46
2019-03-13T03:50:38.269Z,69.27
2019-03-13T03:53:08.256Z,69.77
2019-03-13T03:55:37.929Z,69.61
2019-03-13T03:58:12.260Z,68.76
2019-03-13T04:00:42.109Z,68.57
2019-03-13T04:03:17.412Z,68.41
2019-03-13T04:05:45.047Z,69.30
2019-03-13T04:08:14.742Z,68.44
2019-03-13T04:10:44.404Z,68.86
2019-03-13T04:13:15.699Z,68.86
2019-03-13T04:15:45.384Z,67.93
2019-03-13T04:18:15.021Z,67.93
2019-03-13T04:20:45.713Z,67.69
2019-03-13T04:23:16.483Z,67.55
2019-03-13T04:25:47.675Z,67.30
2019-03-13T04:28:17.329Z,67.72
2019-03-13T04:30:47.049Z,66.30
2019-03-13T04:33:18.354Z,67.04
2019-03-13T04:35:50.659Z,65.94
2019-03-13T04:38:24.141Z,66.08
2019-03-13T04:40:55.673Z,65.63
2019-03-13T04:43:25.007Z,65.63
2019-03-13T04:46:00.274Z,64.90
2019-03-13T04:48:30.005Z,64.90
2019-03-13T04:51:00.680Z,64.90
2019-03-13T04:53:30.337Z,64.26
2019-03-13T04:56:03.532Z,64.26
2019-03-13T04:58:36.300Z,65.03
2019-03-13T05:01:09.540Z,64.28
2019-03-13T05:03:39.224Z,64.28
2019-03-13T05:06:23.540Z,64.73
2019-03-13T05:09:23.210Z,64.26
2019-03-13T05:11:53.261Z,64.26
2019-03-13T05:14:26.797Z,63.83
2019-03-13T05:16:57.542Z,65.33
2019-03-13T05:19:27.183Z,65.33
2019-03-13T05:21:57.022Z,63.89
2019-03-13T05:24:27.975Z,63.79
2019-03-13T05:26:59.030Z,64.26
2019-03-13T05:29:29.654Z,64.26
2019-03-13T05:32:02.213Z,64.62
2019-03-13T05:34:34.000Z,65.35
2019-03-13T05:37:05.259Z,65.23
2019-03-13T05:39:38.561Z,65.37
2019-03-13T05:42:08.378Z,65.37
2019-03-13T05:44:41.426Z,65.70
2019-03-13T05:47:11.239Z,64.58
2019-03-13T05:49:40.922Z,64.49
2019-03-13T05:52:13.825Z,63.46
2019-03-13T05:54:45.793Z,63.39
2019-03-13T05:57:17.536Z,62.40
2019-03-13T05:59:50.143Z,62.66
2019-03-13T06:02:19.753Z,62.66
2019-03-13T06:04:51.776Z,62.17
2019-03-13T06:07:23.397Z,61.77
2019-03-13T06:10:00.665Z,61.03
2019-03-13T06:12:31.520Z,60.34
2019-03-13T06:15:03.524Z,60.07
2019-03-13T06:17:33.782Z,60.04
2019-03-13T06:20:04.759Z,59.11
2019-03-13T06:22:34.339Z,58.01
2019-03-13T06:25:05.348Z,57.18
2019-03-13T06:27:36.049Z,55.71
2019-03-13T06:30:11.765Z,53.45
2019-03-13T06:32:41.537Z,53.45
2019-03-13T06:35:11.461Z,52.29
2019-03-13T06:37:45.290Z,48.75
2019-03-13T06:40:15.149Z,47.22
2019-03-13T06:42:46.119Z,46.84
2019-03-13T06:45:18.293Z,45.33
2019-03-13T06:47:49.475Z,40.90
2019-03-13T06:50:21.534Z,34.83
2019-03-13T06:52:50.916Z,30.44
2019-03-13T06:55:24.207Z,27.79
2019-03-13T06:57:55.767Z,23.66
2019-03-13T07:00:45.261Z,22.85
2019-03-13T07:03:36.581Z,22.77
2019-03-13T07:06:16.913Z,21.45
2019-03-13T07:09:08.292Z,21.07
2019-03-13T07:11:55.603Z,20.22
2019-03-13T07:14:46.978Z,19.61
2019-03-13T07:17:25.210Z,20.51
2019-03-13T07:20:16.712Z,20.04
2019-03-13T07:23:07.217Z,19.42
2019-03-13T07:26:00.308Z,19.16
2019-03-13T07:28:37.872Z,19.99
2019-03-13T07:31:22.365Z,18.28
2019-03-13T07:34:19.432Z,17.82
2019-03-13T07:37:03.124Z,16.58
2019-03-13T07:39:51.932Z,15.54
2019-03-13T07:42:46.397Z,15.82
2019-03-13T07:45:36.790Z,14.73
2019-03-13T07:48:25.214Z,13.92
2019-03-13T07:51:12.050Z,14.83
2019-03-13T07:53:50.848Z,15.50
2019-03-13T07:56:50.380Z,16.87
2019-03-13T07:59:56.928Z,18.65
2019-03-13T08:02:46.409Z,20.75
2019-03-13T08:05:27.964Z,23.20
2019-03-13T08:08:15.477Z,25.81
2019-03-13T08:11:20.979Z,26.66
2019-03-13T08:14:12.075Z,24.22
2019-03-13T08:17:09.017Z,25.03
2019-03-13T08:20:18.992Z,27.04
2019-03-13T08:23:07.414Z,28.69
2019-03-13T08:25:51.639Z,29.39
2019-03-13T08:28:43.283Z,29.10
2019-03-13T08:31:29.845Z,24.78
2019-03-13T08:34:23.864Z,26.33
2019-03-13T08:37:18.084Z,24.31
2019-03-13T08:40:09.626Z,24.77
2019-03-13T08:43:01.687Z,23.68
2019-03-13T08:46:06.155Z,23.70
2019-03-13T08:48:54.994Z,24.76
2019-03-13T08:52:00.629Z,21.99
2019-03-13T08:55:00.697Z,22.25
2019-03-13T08:58:12.355Z,20.85
2019-03-13T09:01:12.016Z,19.14
2019-03-13T09:04:07.695Z,18.28
2019-03-13T09:07:10.913Z,16.91
2019-03-13T09:09:52.031Z,16.72
2019-03-13T09:12:55.464Z,15.24
2019-03-13T09:15:42.577Z,14.45
2019-03-13T09:18:37.521Z,15.17
2019-03-13T09:21:46.496Z,14.62
2019-03-13T09:24:34.515Z,15.26
2019-03-13T09:27:35.322Z,15.97
2019-03-13T09:30:28.427Z,15.92
2019-03-13T09:33:25.071Z,16.72
2019-03-13T09:36:16.709Z,16.01
2019-03-13T09:39:02.613Z,15.76
2019-03-13T09:41:41.857Z,14.62
2019-03-13T09:44:38.909Z,15.78
2019-03-13T09:47:36.488Z,16.34
2019-03-13T09:50:14.683Z,15.76
2019-03-13T09:53:04.076Z,15.26
2019-03-13T09:55:52.636Z,14.79
2019-03-13T09:58:47.535Z,14.98
2019-03-13T10:01:53.598Z,14.88
2019-03-13T10:04:42.208Z,13.73
2019-03-13T10:07:49.306Z,14.07
2019-03-13T10:10:42.094Z,13.71
2019-03-13T10:13:39.379Z,13.13
2019-03-13T10:16:28.012Z,13.46
2019-03-13T10:19:15.019Z,14.36
2019-03-13T10:22:03.478Z,13.05
2019-03-13T10:24:44.823Z,12.16
2019-03-13T10:27:24.402Z,12.90
2019-03-13T10:30:02.759Z,11.94
2019-03-13T10:32:52.867Z,13.32
2019-03-13T10:35:31.979Z,15.37
2019-03-13T10:38:22.494Z,15.37
2019-03-13T10:41:17.440Z,14.77
2019-03-13T10:44:04.631Z,16.13
2019-03-13T10:46:46.212Z,15.05
2019-03-13T10:49:29.490Z,15.38
2019-03-13T10:52:28.581Z,15.81
2019-03-13T10:55:22.849Z,16.11
2019-03-13T10:58:17.286Z,16.02
2019-03-13T11:01:11.303Z,16.77
2019-03-13T11:03:59.204Z,17.30
2019-03-13T11:06:55.037Z,16.94
2019-03-13T11:09:25.775Z,19.03
2019-03-13T11:12:02.419Z,17.52
2019-03-13T11:14:47.836Z,17.49
2019-03-13T11:17:36.398Z,17.95
2019-03-13T11:20:30.526Z,17.56
2019-03-13T11:23:24.859Z,20.04
2019-03-13T11:26:07.299Z,18.72
2019-03-13T11:29:01.241Z,20.82
2019-03-13T11:31:49.708Z,20.40
2019-03-13T11:34:56.299Z,18.93
2019-03-13T11:37:58.418Z,19.10
2019-03-13T11:40:45.932Z,20.51
2019-03-13T11:43:34.398Z,20.83
2019-03-13T11:46:21.981Z,21.22
2019-03-13T11:49:09.342Z,23.21
2019-03-13T11:52:08.036Z,26.34
2019-03-13T11:55:04.813Z,27.43
2019-03-13T11:58:06.437Z,29.39
2019-03-13T12:00:47.673Z,30.97
2019-03-13T12:03:41.817Z,31.75
2019-03-13T12:06:21.316Z,31.53
2019-03-13T12:09:10.014Z,31.32
2019-03-13T12:12:02.228Z,32.26
2019-03-13T12:14:43.701Z,31.56
2019-03-13T12:17:37.024Z,32.45
2019-03-13T12:20:33.156Z,32.79
2019-03-13T12:23:31.580Z,33.16
2019-03-13T12:26:18.741Z,33.62
2019-03-13T12:29:10.272Z,33.11
2019-03-13T12:32:04.981Z,33.10
2019-03-13T12:34:52.339Z,32.91
2019-03-13T12:37:35.101Z,32.72
2019-03-13T12:40:37.638Z,33.62
2019-03-13T12:43:38.757Z,33.85
2019-03-13T12:46:26.985Z,34.58
2019-03-13T12:49:24.899Z,35.27
2019-03-13T12:52:09.658Z,36.17
2019-03-13T12:54:58.337Z,36.18
2019-03-13T12:57:46.942Z,36.49
2019-03-13T13:00:37.356Z,37.21
2019-03-13T13:03:20.376Z,36.89
2019-03-13T13:06:09.100Z,36.70
2019-03-13T13:08:57.011Z,36.68
2019-03-13T13:11:55.822Z,37.04
2019-03-13T13:14:52.459Z,36.18
2019-03-13T13:17:38.959Z,36.43
2019-03-13T13:20:10.663Z,36.94
2019-03-13T13:22:40.507Z,37.06
2019-03-13T13:25:12.755Z,36.92
2019-03-13T13:27:43.837Z,37.47
2019-03-13T13:30:14.471Z,37.25
2019-03-13T13:32:44.163Z,37.33
2019-03-13T13:35:14.129Z,36.70
2019-03-13T13:37:44.196Z,37.06
2019-03-13T13:40:14.256Z,37.67
2019-03-13T13:42:43.919Z,37.66
2019-03-13T13:45:43.100Z,36.90
2019-03-13T13:48:17.086Z,36.94
2019-03-13T13:50:47.216Z,37.46
2019-03-13T13:53:17.138Z,37.89
2019-03-13T13:55:47.968Z,38.30
2019-03-13T13:58:17.826Z,38.87
2019-03-13T14:00:47.858Z,38.80
2019-03-13T14:03:17.545Z,38.93
2019-03-13T14:05:47.229Z,38.80
2019-03-13T14:08:16.945Z,38.49
2019-03-13T14:10:46.809Z,38.89
2019-03-13T14:13:17.094Z,39.14
2019-03-13T14:15:47.344Z,39.26
2019-03-13T14:18:17.289Z,39.08
2019-03-13T14:20:47.203Z,39.75
2019-03-13T14:23:17.190Z,39.41
2019-03-13T14:25:47.021Z,39.26
2019-03-13T14:28:16.627Z,39.32
2019-03-13T14:30:46.272Z,39.47
2019-03-13T14:33:16.146Z,39.48
2019-03-13T14:35:46.563Z,39.48
2019-03-13T14:38:18.142Z,39.79
2019-03-13T14:40:47.968Z,40.12
2019-03-13T14:43:18.329Z,40.59
2019-03-13T14:45:48.388Z,40.78
2019-03-13T14:48:17.988Z,40.88
2019-03-13T14:50:47.704Z,41.19
2019-03-13T14:53:17.549Z,41.19
2019-03-13T14:55:47.239Z,41.35
2019-03-13T14:58:16.830Z,41.69
2019-03-13T15:00:46.613Z,40.87
2019-03-13T15:03:16.761Z,41.17
2019-03-13T15:05:46.535Z,41.00
2019-03-13T15:08:18.154Z,41.03
2019-03-13T15:10:47.999Z,41.56
2019-03-13T15:13:17.785Z,42.30
2019-03-13T15:15:47.565Z,42.30
2019-03-13T15:18:17.337Z,41.67
2019-03-13T15:20:47.419Z,42.53
2019-03-13T15:23:17.309Z,42.53
2019-03-13T15:25:48.870Z,42.61
2019-03-13T15:28:18.575Z,42.59
2019-03-13T15:30:48.385Z,42.41
2019-03-13T15:33:18.020Z,42.22
2019-03-13T15:35:47.911Z,42.48
2019-03-13T15:38:17.987Z,42.72
2019-03-13T15:40:47.897Z,42.59
2019-03-13T15:43:17.803Z,42.54
2019-03-13T15:45:47.570Z,42.79
2019-03-13T15:48:18.717Z,42.83
2019-03-13T15:50:48.486Z,43.42
2019-03-13T15:53:18.220Z,43.42
2019-03-13T15:55:48.095Z,43.80
2019-03-13T15:58:17.906Z,44.02
2019-03-13T16:00:47.751Z,44.02
2019-03-13T16:03:17.520Z,44.31
2019-03-13T16:05:47.273Z,44.52
2019-03-13T16:08:17.070Z,44.52
2019-03-13T16:10:46.931Z,44.90
2019-03-13T16:13:16.772Z,45.12
2019-03-13T16:15:46.691Z,45.17
2019-03-13T16:18:16.304Z,45.45
2019-03-13T16:20:46.170Z,45.79
2019-03-13T16:23:17.366Z,45.79
2019-03-13T16:25:47.034Z,45.88
2019-03-13T16:28:16.752Z,46.50
2019-03-13T16:30:46.657Z,46.77
2019-03-13T16:33:16.731Z,46.54
2019-03-13T16:35:46.803Z,46.60
2019-03-13T16:38:16.614Z,46.67
2019-03-13T16:40:47.666Z,46.67
2019-03-13T16:43:18.371Z,46.96
2019-03-13T16:45:48.099Z,47.37
2019-03-13T16:48:17.966Z,47.44
2019-03-13T16:50:47.772Z,47.46
2019-03-13T16:53:17.616Z,47.45
2019-03-13T16:55:47.208Z,47.49
2019-03-13T16:58:16.931Z,47.26
2019-03-13T17:00:46.663Z,47.45
2019-03-13T17:03:16.429Z,47.25
2019-03-13T17:05:46.098Z,47.29
2019-03-13T17:08:15.887Z,47.20
2019-03-13T17:10:45.635Z,47.29
2019-03-13T17:13:15.433Z,47.41
2019-03-13T17:15:45.049Z,46.96
2019-03-13T17:18:14.831Z,47.03
2019-03-13T17:20:44.598Z,47.18
2019-03-13T17:23:14.429Z,47.41
2019-03-13T17:25:44.168Z,47.30
2019-03-13T17:28:13.941Z,47.73
2019-03-13T17:30:43.613Z,47.46
2019-03-13T17:33:13.270Z,47.53
2019-03-13T17:35:43.130Z,47.94
2019-03-13T17:38:13.175Z,48.22
2019-03-13T17:40:42.795Z,48.92
2019-03-13T17:43:12.527Z,48.54
2019-03-13T17:45:42.334Z,48.50
2019-03-13T17:48:12.102Z,48.89
2019-03-13T17:50:41.824Z,48.98
2019-03-13T17:53:11.470Z,48.95
2019-03-13T17:55:41.284Z,49.25
2019-03-13T17:58:10.946Z,49.21
2019-03-13T18:00:50.649Z,49.19
2019-03-13T18:03:20.697Z,49.35
2019-03-13T18:05:50.411Z,49.87
2019-03-13T18:08:20.015Z,49.40
2019-03-13T18:10:50.119Z,49.39
2019-03-13T18:13:19.971Z,49.73
2019-03-13T18:15:49.694Z,49.73
2019-03-13T18:18:19.477Z,50.28
2019-03-13T18:20:49.319Z,50.39
2019-03-13T18:23:19.018Z,50.27
2019-03-13T18:25:49.246Z,50.94
2019-03-13T18:28:18.994Z,50.91
2019-03-13T18:30:48.773Z,50.89
2019-03-13T18:33:18.455Z,50.91
2019-03-13T18:35:48.176Z,50.80
2019-03-13T18:38:17.974Z,50.77
2019-03-13T18:40:47.622Z,51.05
2019-03-13T18:43:17.352Z,50.37
2019-03-13T18:45:47.050Z,50.75
2019-03-13T18:48:16.794Z,51.03
2019-03-13T18:50:46.397Z,50.95
2019-03-13T18:53:16.114Z,50.88
2019-03-13T18:55:45.887Z,51.23
2019-03-13T18:58:15.567Z,50.88
2019-03-13T19:00:45.187Z,50.96
2019-03-13T19:03:14.973Z,51.11
2019-03-13T19:05:44.591Z,50.91
2019-03-13T19:08:14.214Z,50.83
2019-03-13T19:10:43.954Z,51.49
2019-03-13T19:13:13.664Z,52.06
2019-03-13T19:15:43.355Z,52.09
2019-03-13T19:18:13.203Z,52.12
2019-03-13T19:20:43.081Z,52.05
2019-03-13T19:23:14.277Z,52.17
2019-03-13T19:25:44.214Z,52.30
2019-03-13T19:28:13.853Z,52.00
2019-03-13T19:30:43.488Z,51.99
2019-03-13T19:33:13.261Z,51.97
2019-03-13T19:35:43.027Z,52.09
2019-03-13T19:38:12.933Z,52.07
2019-03-13T19:40:42.815Z,51.91
2019-03-13T19:43:12.389Z,51.77
2019-03-13T19:45:42.675Z,52.00
2019-03-13T19:48:12.556Z,52.08
2019-03-13T19:50:42.279Z,51.41
2019-03-13T19:53:12.169Z,51.88
2019-03-13T19:55:42.047Z,51.39
2019-03-13T19:58:11.740Z,51.52
2019-03-13T20:00:42.321Z,51.60
2019-03-13T20:03:12.216Z,51.76
2019-03-13T20:05:45.872Z,52.18
2019-03-13T20:08:14.112Z,52.41
2019-03-13T20:10:44.276Z,52.26
2019-03-13T20:13:13.966Z,52.43
2019-03-13T20:15:43.689Z,52.82
2019-03-13T20:18:13.342Z,52.74
2019-03-13T20:20:43.147Z,52.94
2019-03-13T20:23:12.914Z,52.83
2019-03-13T20:25:42.826Z,52.94
2019-03-13T20:28:12.383Z,52.90
2019-03-13T20:30:42.125Z,52.88
2019-03-13T20:33:12.019Z,52.75
2019-03-13T20:35:41.843Z,53.08
2019-03-13T20:38:11.446Z,53.07
2019-03-13T20:40:41.191Z,52.80
2019-03-13T20:43:10.989Z,52.81
2019-03-13T20:45:40.812Z,52.04
2019-03-13T20:48:10.574Z,51.93
2019-03-13T20:50:40.293Z,51.51
2019-03-13T20:53:09.980Z,51.92
2019-03-13T20:55:39.440Z,52.08
2019-03-13T20:58:09.142Z,51.95
2019-03-13T21:00:38.787Z,52.08
2019-03-13T21:03:08.637Z,52.17
2019-03-13T21:05:38.306Z,52.00
2019-03-13T21:08:08.153Z,51.88
2019-03-13T21:10:37.784Z,51.77
2019-03-13T21:13:07.524Z,52.02
2019-03-13T21:15:37.153Z,52.00
2019-03-13T21:18:07.027Z,51.92
2019-03-13T21:20:36.942Z,51.95
2019-03-13T21:23:06.836Z,51.70
2019-03-13T21:25:38.748Z,51.76
2019-03-13T21:28:08.352Z,51.66
2019-03-13T21:30:38.128Z,51.53
2019-03-13T21:33:08.000Z,52.17
2019-03-13T21:35:37.681Z,52.13
2019-03-13T21:38:07.350Z,51.80
2019-03-13T21:40:36.982Z,51.91
2019-03-13T21:43:06.709Z,52.28
2019-03-13T21:45:41.463Z,52.31
2019-03-13T21:48:07.878Z,52.45
2019-03-13T21:50:37.618Z,52.65
2019-03-13T21:53:07.363Z,52.47
2019-03-13T21:55:37.270Z,52.66
2019-03-13T21:58:07.127Z,52.59
2019-03-13T22:00:37.112Z,52.52
2019-03-13T22:03:07.082Z,52.82
2019-03-13T22:05:36.831Z,52.64
2019-03-13T22:08:06.430Z,53.04
2019-03-13T22:10:36.243Z,53.00
2019-03-13T22:13:06.040Z,53.07
2019-03-13T22:15:35.946Z,53.40
2019-03-13T22:18:05.802Z,53.66
2019-03-13T22:20:35.514Z,53.83
2019-03-13T22:23:05.331Z,53.90
2019-03-13T22:25:35.078Z,54.00
2019-03-13T22:28:04.735Z,53.98
2019-03-13T22:30:34.375Z,54.07
2019-03-13T22:33:05.361Z,54.08
2019-03-13T22:35:34.945Z,54.35
2019-03-13T22:38:04.468Z,54.11
2019-03-13T22:40:35.577Z,54.10
2019-03-13T22:43:05.212Z,54.36
2019-03-13T22:45:35.088Z,54.67
2019-03-13T22:48:04.685Z,54.96
2019-03-13T22:50:34.446Z,54.90
2019-03-13T22:53:04.302Z,54.98
2019-03-13T22:55:33.965Z,55.16
2019-03-13T22:58:03.828Z,54.97
2019-03-13T23:01:21.454Z,54.90
2019-03-13T23:03:51.753Z,54.49
2019-03-13T23:06:21.677Z,54.40
2019-03-13T23:08:51.409Z,54.46
2019-03-13T23:11:21.393Z,54.61
2019-03-13T23:13:51.010Z,55.04
2019-03-13T23:16:23.749Z,55.18
2019-03-13T23:18:52.048Z,55.46
2019-03-13T23:21:21.642Z,55.44
2019-03-13T23:23:51.247Z,55.30
2019-03-13T23:26:20.876Z,55.07
2019-03-13T23:28:50.464Z,55.10
2019-03-13T23:31:20.325Z,55.16
2019-03-13T23:33:49.917Z,55.12
2019-03-13T23:36:19.667Z,55.28
2019-03-13T23:38:49.313Z,55.33
2019-03-13T23:41:19.108Z,56.04
2019-03-13T23:43:49.027Z,56.14
2019-03-13T23:46:18.740Z,56.34
2019-03-13T23:48:48.489Z,56.40
2019-03-13T23:51:18.298Z,56.70
2019-03-13T23:53:47.920Z,56.68
2019-03-13T23:56:17.659Z,56.94
2019-03-13T23:58:49.112Z,57.17
